Mendon, MI

9:41 PM EDT on April 25, 2015 (GMT -0400)
Branch County Memorial | | Change Station
CLOSE
Current Station
Airport
Location: Coldwater,
Elevation: 958 ft
Nearby Weather Stations

Elev 958 ft 41.93 °N, 85.05 °W | Updated 7 minutes ago

Overcast
Overcast
45 °F
Feels Like 45 °F
N
0
Wind Variable Wind from North

Today
High -- | Low -- °F
--% Chance of Precip.
Yesterday
High -- | Low -- °F
Precip. -- in
6:46 AM 8:33 PM
Waxing Crescent, 51% visible
Pressure 29.79 in
Visibility 10.0 miles
Clouds Overcast 9000 ft
Dew Point 31 °F
Humidity 58%
Rainfall 0.00 in
Snow Depth Not available.
UV 0 out of 12
Pollen 4.90 out of 12
Air Quality Not available.
Flu Activity Regional
METAR KOEB 260134Z AUTO 00000KT 10SM OVC090 07/00 A2979 RMK AO2 T00721005

More Conditions Fewer Conditions

Pressure 29.79 in
Visibility 10.0 miles
Clouds Overcast 9000 ft
Dew Point 31 °F
Humidity 58%
Rainfall 0.00 in
Snow Depth Not available.
UV 0 out of 12
Pollen 4.90 out of 12
Air Quality Not available.
Flu Activity Regional
METAR KOEB 260134Z AUTO 00000KT 10SM OVC090 07/00 A2979 RMK AO2 T00721005

More Conditions Fewer Conditions

10-Day Weather Forecast

Almanac

Astronomy

Apr. 25, 2015 Rise Set
Actual Time
Civil Twilight
Nautical Twilight
Astronomical Twilight
Moon
Length of Visible Light
Length of Day
Tomorrow will be .
, % of the Moon is Illuminated

Today's Extremes

State Highs State Lows

Community

WunderPhotos

Upload Photos

1,816,893 photos uploaded!

WunderBlogs® & News

Nearby

Air Quality

  Air Quality AQ Index Pollutant
Not available.

Snow Depth

Station Depth Elevation

Earthquake Activity

City Distance Mag. Time & Date
Minimum magnitude displayed is 2.5.

Coastal Water Temperatures

Place Temperature

Stations

Nearby Weather Stations

Station Location Temp. Windchill Dew Point Humidity Wind Precip. Elev Updated Type